Time,TemperatureF,DewpointF,PressureIn,WindDirection,WindDirectionDegrees,WindSpeedMPH,WindSpeedGustMPH,Humidity,HourlyPrecipIn,Conditions,Clouds,dailyrainin,SoftwareType,DateUTC
2013-04-09 00:00:00,54.5,43.4,29.87,NE,56,0.0,0.0,66,0.00,,,0.00,Wunderground v.1.15,2013-04-09 04:00:00,
2013-04-09 00:10:00,54.2,43.5,29.87,NNE,13,0.0,0.0,67,0.00,,,0.00,Wunderground v.1.15,2013-04-09 04:10:00,
2013-04-09 00:20:00,54.1,43.8,29.86,North,7,0.0,0.0,68,0.00,,,0.00,Wunderground v.1.15,2013-04-09 04:20:00,
2013-04-09 00:30:00,54.1,44.2,29.86,North,7,0.0,0.0,69,0.00,,,0.00,Wunderground v.1.15,2013-04-09 04:30:00,
2013-04-09 00:40:00,53.9,44.0,29.86,NE,45,1.0,1.0,69,0.00,,,0.00,Wunderground v.1.15,2013-04-09 04:40:00,
2013-04-09 00:50:00,53.6,44.0,29.86,NNE,14,0.0,0.0,70,0.00,,,0.00,Wunderground v.1.15,2013-04-09 04:50:00,
2013-04-09 01:00:00,53.6,44.4,29.85,North,10,0.0,2.0,71,0.00,,,0.00,Wunderground v.1.15,2013-04-09 05:00:00,
2013-04-09 01:10:00,53.6,44.4,29.85,North,10,1.0,1.0,71,0.00,,,0.00,Wunderground v.1.15,2013-04-09 05:10:00,
2013-04-09 01:20:00,53.2,44.0,29.84,North,8,0.0,0.0,71,0.00,,,0.00,Wunderground v.1.15,2013-04-09 05:20:00,
2013-04-09 01:30:00,53.2,44.0,29.83,North,8,0.0,0.0,71,0.00,,,0.00,Wunderground v.1.15,2013-04-09 05:30:00,
2013-04-09 01:40:00,52.9,44.5,29.83,North,4,0.0,0.0,73,0.00,,,0.00,Wunderground v.1.15,2013-04-09 05:40:00,
2013-04-09 01:50:00,52.8,44.4,29.83,North,4,0.0,0.0,73,0.00,,,0.00,Wunderground v.1.15,2013-04-09 05:50:00,
2013-04-09 02:00:00,52.6,44.2,29.83,North,4,0.0,0.0,73,0.00,,,0.00,Wunderground v.1.15,2013-04-09 06:00:00,
2013-04-09 02:10:00,52.5,44.4,29.83,North,4,0.0,0.0,74,0.00,,,0.00,Wunderground v.1.15,2013-04-09 06:10:00,
2013-04-09 02:20:00,52.3,44.3,29.83,North,4,0.0,0.0,74,0.00,,,0.00,Wunderground v.1.15,2013-04-09 06:20:00,
2013-04-09 02:30:00,52.3,44.3,29.82,North,4,0.0,0.0,74,0.00,,,0.00,Wunderground v.1.15,2013-04-09 06:30:00,
2013-04-09 02:40:00,52.0,44.0,29.82,North,4,1.0,1.0,74,0.00,,,0.00,Wunderground v.1.15,2013-04-09 06:40:00,
2013-04-09 02:50:00,51.9,43.9,29.81,North,1,0.0,0.0,74,0.00,,,0.00,Wunderground v.1.15,2013-04-09 06:50:00,
2013-04-09 03:00:00,51.4,44.4,29.82,North,1,0.0,0.0,77,0.00,,,0.00,Wunderground v.1.15,2013-04-09 07:00:00,
2013-04-09 03:10:00,51.3,44.7,29.82,North,1,0.0,1.0,78,0.00,,,0.00,Wunderground v.1.15,2013-04-09 07:10:00,
2013-04-09 03:20:00,51.3,44.7,29.80,North,1,0.0,0.0,78,0.00,,,0.00,Wunderground v.1.15,2013-04-09 07:20:00,
2013-04-09 03:30:00,51.1,44.5,29.80,North,1,0.0,0.0,78,0.00,,,0.00,Wunderground v.1.15,2013-04-09 07:30:00,
2013-04-09 03:40:00,51.1,44.5,29.80,North,4,0.0,0.0,78,0.00,,,0.00,Wunderground v.1.15,2013-04-09 07:40:00,
2013-04-09 03:50:00,51.0,44.4,29.79,ENE,58,0.0,0.0,78,0.00,,,0.00,Wunderground v.1.15,2013-04-09 07:50:00,
2013-04-09 04:00:00,51.0,44.4,29.80,NNE,17,0.0,0.0,78,0.00,,,0.00,Wunderground v.1.15,2013-04-09 08:00:00,
2013-04-09 04:10:00,50.7,44.1,29.80,North,8,0.0,0.0,78,0.00,,,0.00,Wunderground v.1.15,2013-04-09 08:10:00,
2013-04-09 04:20:00,50.7,44.1,29.79,North,8,0.0,0.0,78,0.00,,,0.00,Wunderground v.1.15,2013-04-09 08:20:00,
2013-04-09 04:30:00,50.2,44.3,29.79,North,8,0.0,0.0,80,0.00,,,0.00,Wunderground v.1.15,2013-04-09 08:30:00,
2013-04-09 04:40:00,49.9,44.3,29.79,North,8,0.0,0.0,81,0.00,,,0.00,Wunderground v.1.15,2013-04-09 08:40:00,
2013-04-09 04:50:00,49.9,44.3,29.79,North,10,0.0,0.0,81,0.00,,,0.00,Wunderground v.1.15,2013-04-09 08:50:00,
2013-04-09 05:00:00,49.9,44.3,29.79,North,10,0.0,0.0,81,0.00,,,0.00,Wunderground v.1.15,2013-04-09 09:00:00,
2013-04-09 05:10:00,49.6,44.0,29.79,North,10,0.0,0.0,81,0.00,,,0.00,Wunderground v.1.15,2013-04-09 09:10:00,
2013-04-09 05:20:00,49.6,44.0,29.79,North,10,0.0,0.0,81,0.00,,,0.00,Wunderground v.1.15,2013-04-09 09:20:00,
2013-04-09 05:30:00,48.8,43.2,29.80,North,10,0.0,0.0,81,0.00,,,0.00,Wunderground v.1.15,2013-04-09 09:30:00,
2013-04-09 05:40:00,48.8,43.2,29.80,North,10,0.0,0.0,81,0.00,,,0.00,Wunderground v.1.15,2013-04-09 09:40:00,
2013-04-09 05:50:00,48.3,42.7,29.80,North,10,0.0,0.0,81,0.00,,,0.00,Wunderground v.1.15,2013-04-09 09:50:00,
2013-04-09 06:00:00,48.3,43.7,29.81,North,10,0.0,0.0,84,0.00,,,0.00,Wunderground v.1.15,2013-04-09 10:00:00,
2013-04-09 06:10:00,48.2,43.6,29.81,North,10,0.0,0.0,84,0.00,,,0.00,Wunderground v.1.15,2013-04-09 10:10:00,
2013-04-09 06:20:00,48.3,44.0,29.81,North,10,0.0,0.0,85,0.00,,,0.00,Wunderground v.1.15,2013-04-09 10:20:00,
2013-04-09 06:30:00,48.5,44.2,29.81,North,10,0.0,0.0,85,0.00,,,0.00,Wunderground v.1.15,2013-04-09 10:30:00,
2013-04-09 06:40:00,48.3,44.0,29.81,North,10,0.0,0.0,85,0.00,,,0.00,Wunderground v.1.15,2013-04-09 10:40:00,
2013-04-09 06:50:00,48.3,44.0,29.82,North,10,0.0,0.0,85,0.00,,,0.00,Wunderground v.1.15,2013-04-09 10:50:00,
2013-04-09 07:10:00,48.5,44.2,29.82,North,10,0.0,0.0,85,0.00,,,0.00,Wunderground v.1.15,2013-04-09 11:10:00,
2013-04-09 07:20:00,48.6,44.3,29.82,North,10,0.0,0.0,85,0.00,,,0.00,Wunderground v.1.15,2013-04-09 11:20:00,
2013-04-09 07:30:00,49.4,45.4,29.82,North,10,0.0,0.0,86,0.00,,,0.00,Wunderground v.1.15,2013-04-09 11:30:00,
2013-04-09 07:40:00,50.2,45.9,29.82,North,10,0.0,0.0,85,0.00,,,0.00,Wunderground v.1.15,2013-04-09 11:40:00,
2013-04-09 07:50:00,51.9,46.6,29.82,NNW,335,0.0,1.0,82,0.00,,,0.00,Wunderground v.1.15,2013-04-09 11:50:00,
2013-04-09 08:00:00,53.8,46.8,29.82,NE,45,1.0,1.0,77,0.00,,,0.00,Wunderground v.1.15,2013-04-09 12:00:00,
2013-04-09 08:10:00,55.3,46.8,29.82,NNE,23,1.0,1.0,73,0.00,,,0.00,Wunderground v.1.15,2013-04-09 12:10:00,
2013-04-09 08:20:00,56.9,48.3,29.82,North,353,1.0,3.0,73,0.00,,,0.00,Wunderground v.1.15,2013-04-09 12:20:00,
2013-04-09 08:30:00,57.8,49.2,29.81,NNE,23,2.0,2.0,73,0.00,,,0.00,Wunderground v.1.15,2013-04-09 12:30:00,
2013-04-09 08:40:00,57.8,49.2,29.81,NNE,21,2.0,2.0,73,0.00,,,0.00,Wunderground v.1.15,2013-04-09 12:40:00,
2013-04-09 08:50:00,60.4,47.7,29.80,ESE,119,4.0,4.0,63,0.00,,,0.00,Wunderground v.1.15,2013-04-09 12:50:00,
2013-04-09 09:10:00,61.6,48.9,29.80,North,3,3.0,3.0,63,0.00,,,0.00,Wunderground v.1.15,2013-04-09 13:10:00,
2013-04-09 09:20:00,62.7,49.9,29.80,NNE,32,2.0,2.0,63,0.00,,,0.00,Wunderground v.1.15,2013-04-09 13:20:00,
2013-04-09 09:30:00,62.7,49.9,29.79,East,80,1.0,1.0,63,0.00,,,0.00,Wunderground v.1.15,2013-04-09 13:30:00,
2013-04-09 09:40:00,65.3,52.4,29.79,NNE,20,2.0,2.0,63,0.00,,,0.00,Wunderground v.1.15,2013-04-09 13:40:00,
2013-04-09 09:50:00,65.3,52.4,29.79,North,10,2.0,2.0,63,0.00,,,0.00,Wunderground v.1.15,2013-04-09 13:50:00,
2013-04-09 10:00:00,65.3,52.4,29.80,SE,136,2.0,2.0,63,0.00,,,0.00,Wunderground v.1.15,2013-04-09 14:00:00,
2013-04-09 10:10:00,65.3,52.4,29.80,South,175,1.0,1.0,63,0.00,,,0.00,Wunderground v.1.15,2013-04-09 14:10:00,
2013-04-09 10:20:00,65.3,52.4,29.80,East,89,3.0,3.0,63,0.00,,,0.00,Wunderground v.1.15,2013-04-09 14:20:00,
2013-04-09 10:30:00,65.3,52.4,29.80,NNE,23,2.0,10.0,63,0.00,,,0.00,Wunderground v.1.15,2013-04-09 14:30:00,
2013-04-09 10:40:00,65.3,52.4,29.80,SE,127,3.0,3.0,63,0.00,,,0.00,Wunderground v.1.15,2013-04-09 14:40:00,
2013-04-09 10:50:00,65.3,52.4,29.80,South,182,2.0,2.0,63,0.00,,,0.00,Wunderground v.1.15,2013-04-09 14:50:00,
2013-04-09 11:00:00,65.3,52.4,29.80,East,89,3.0,3.0,63,0.00,,,0.00,Wunderground v.1.15,2013-04-09 15:00:00,
2013-04-09 11:10:00,65.3,52.4,29.80,North,359,4.0,10.0,63,0.00,,,0.00,Wunderground v.1.15,2013-04-09 15:10:00,
2013-04-09 11:20:00,74.9,61.5,29.80,ESE,123,3.0,3.0,63,0.00,,,0.00,Wunderground v.1.15,2013-04-09 15:20:00,
2013-04-09 11:30:00,75.3,61.8,29.79,SW,217,2.0,2.0,63,0.00,,,0.00,Wunderground v.1.15,2013-04-09 15:30:00,
2013-04-09 11:40:00,75.8,42.1,29.79,SSW,193,2.0,3.0,30,0.00,,,0.00,Wunderground v.1.15,2013-04-09 15:40:00,
2013-04-09 11:50:00,76.0,41.4,29.80,East,88,2.0,5.0,29,0.00,,,0.00,Wunderground v.1.15,2013-04-09 15:50:00,
2013-04-09 12:00:00,76.1,43.3,29.80,North,0,3.0,3.0,31,0.00,,,0.00,Wunderground v.1.15,2013-04-09 16:00:00,
2013-04-09 12:10:00,76.1,41.5,29.80,East,92,1.0,1.0,29,0.00,,,0.00,Wunderground v.1.15,2013-04-09 16:10:00,
2013-04-09 12:20:00,77.2,42.5,29.80,NE,40,2.0,2.0,29,0.00,,,0.00,Wunderground v.1.15,2013-04-09 16:20:00,
2013-04-09 12:30:00,77.2,41.6,29.80,NNE,14,1.0,4.0,28,0.00,,,0.00,Wunderground v.1.15,2013-04-09 16:30:00,
2013-04-09 12:40:00,77.2,40.6,29.80,SW,217,2.0,2.0,27,0.00,,,0.00,Wunderground v.1.15,2013-04-09 16:40:00,
2013-04-09 12:50:00,77.6,41.0,29.80,SE,144,2.0,2.0,27,0.00,,,0.00,Wunderground v.1.15,2013-04-09 16:50:00,
2013-04-09 13:00:00,78.3,41.6,29.80,WSW,247,2.0,2.0,27,0.00,,,0.00,Wunderground v.1.15,2013-04-09 17:00:00,
2013-04-09 13:10:00,78.1,41.4,29.80,North,8,1.0,3.0,27,0.00,,,0.00,Wunderground v.1.15,2013-04-09 17:10:00,
2013-04-09 13:20:00,78.3,41.6,29.79,SSW,210,2.0,3.0,27,0.00,,,0.00,Wunderground v.1.15,2013-04-09 17:20:00,
2013-04-09 13:30:00,77.7,41.0,29.80,South,189,2.0,2.0,27,0.00,,,0.00,Wunderground v.1.15,2013-04-09 17:30:00,
2013-04-09 13:40:00,77.9,40.2,29.80,SW,224,2.0,2.0,26,0.00,,,0.00,Wunderground v.1.15,2013-04-09 17:40:00,
2013-04-09 13:50:00,77.4,37.8,29.81,NNE,28,3.0,3.0,24,0.00,,,0.00,Wunderground v.1.15,2013-04-09 17:50:00,
2013-04-09 14:00:00,78.1,40.4,29.82,WNW,289,2.0,2.0,26,0.00,,,0.00,Wunderground v.1.15,2013-04-09 18:00:00,
2013-04-09 14:10:00,78.3,37.4,29.82,SE,133,2.0,2.0,23,0.00,,,0.00,Wunderground v.1.15,2013-04-09 18:10:00,
2013-04-09 14:20:00,78.1,40.4,29.81,SSW,205,1.0,1.0,26,0.00,,,0.00,Wunderground v.1.15,2013-04-09 18:20:00,
2013-04-09 14:40:00,78.6,40.8,29.81,SSW,196,0.0,0.0,26,0.00,,,0.00,Wunderground v.1.15,2013-04-09 18:40:00,
2013-04-09 14:50:00,78.1,40.4,29.82,South,189,3.0,3.0,26,0.00,,,0.00,Wunderground v.1.15,2013-04-09 18:50:00,
2013-04-09 15:00:00,77.9,38.2,29.81,ESE,103,3.0,3.0,24,0.00,,,0.00,Wunderground v.1.15,2013-04-09 19:00:00,
2013-04-09 15:10:00,78.1,38.4,29.81,NE,51,5.0,5.0,24,0.00,,,0.00,Wunderground v.1.15,2013-04-09 19:10:00,
2013-04-09 15:20:00,78.1,38.4,29.81,SSW,198,3.0,3.0,24,0.00,,,0.00,Wunderground v.1.15,2013-04-09 19:20:00,
2013-04-09 15:30:00,77.4,36.7,29.80,SSE,152,2.0,2.0,23,0.00,,,0.00,Wunderground v.1.15,2013-04-09 19:30:00,
2013-04-09 15:40:00,78.6,37.7,29.80,North,350,2.0,2.0,23,0.00,,,0.00,Wunderground v.1.15,2013-04-09 19:40:00,
2013-04-09 15:50:00,79.0,36.9,29.81,SSW,208,2.0,2.0,22,0.00,,,0.00,Wunderground v.1.15,2013-04-09 19:50:00,
2013-04-09 16:00:00,78.3,36.3,29.80,East,99,2.0,2.0,22,0.00,,,0.00,Wunderground v.1.15,2013-04-09 20:00:00,
2013-04-09 16:10:00,78.6,37.7,29.80,SSW,210,2.0,2.0,23,0.00,,,0.00,Wunderground v.1.15,2013-04-09 20:10:00,
2013-04-09 16:20:00,78.3,38.5,29.79,ENE,62,2.0,3.0,24,0.00,,,0.00,Wunderground v.1.15,2013-04-09 20:20:00,
2013-04-09 16:40:00,78.8,36.7,29.78,SW,219,1.0,1.0,22,0.00,,,0.00,Wunderground v.1.15,2013-04-09 20:40:00,
2013-04-09 16:50:00,78.5,35.3,29.78,WSW,244,2.0,2.0,21,0.00,,,0.00,Wunderground v.1.15,2013-04-09 20:50:00,
2013-04-09 17:00:00,78.5,37.6,29.78,West,278,1.0,1.0,23,0.00,,,0.00,Wunderground v.1.15,2013-04-09 21:00:00,
2013-04-09 17:10:00,78.3,35.1,29.78,WSW,254,1.0,1.0,21,0.00,,,0.00,Wunderground v.1.15,2013-04-09 21:10:00,
2013-04-09 17:20:00,78.1,36.1,29.78,SW,236,1.0,1.0,22,0.00,,,0.00,Wunderground v.1.15,2013-04-09 21:20:00,
2013-04-09 17:30:00,78.1,36.1,29.79,SW,216,1.0,2.0,22,0.00,,,0.00,Wunderground v.1.15,2013-04-09 21:30:00,
2013-04-09 17:40:00,77.7,35.8,29.79,SW,230,1.0,2.0,22,0.00,,,0.00,Wunderground v.1.15,2013-04-09 21:40:00,
2013-04-09 17:50:00,77.6,36.8,29.79,SSW,212,1.0,1.0,23,0.00,,,0.00,Wunderground v.1.15,2013-04-09 21:50:00,
2013-04-09 18:00:00,77.6,36.8,29.80,SW,223,0.0,0.0,23,0.00,,,0.00,Wunderground v.1.15,2013-04-09 22:00:00,
2013-04-09 18:10:00,77.6,36.8,29.80,SW,223,1.0,2.0,23,0.00,,,0.00,Wunderground v.1.15,2013-04-09 22:10:00,
2013-04-09 18:20:00,77.6,36.8,29.80,West,275,1.0,1.0,23,0.00,,,0.00,Wunderground v.1.15,2013-04-09 22:20:00,
2013-04-09 18:30:00,75.1,34.8,29.80,WSW,241,1.0,1.0,23,0.00,,,0.00,Wunderground v.1.15,2013-04-09 22:30:00,
2013-04-09 18:40:00,75.1,34.8,29.80,WSW,241,0.0,0.0,23,0.00,,,0.00,Wunderground v.1.15,2013-04-09 22:40:00,
2013-04-09 18:50:00,74.0,33.8,29.80,WSW,244,0.0,0.0,23,0.00,,,0.00,Wunderground v.1.15,2013-04-09 22:50:00,
2013-04-09 19:00:00,73.2,33.2,29.80,WSW,244,0.0,0.0,23,0.00,,,0.00,Wunderground v.1.15,2013-04-09 23:00:00,
2013-04-09 19:10:00,72.0,32.1,29.80,WSW,244,0.0,0.0,23,0.00,,,0.00,Wunderground v.1.15,2013-04-09 23:10:00,
2013-04-09 19:20:00,70.9,31.2,29.79,WSW,244,0.0,0.0,23,0.00,,,0.00,Wunderground v.1.15,2013-04-09 23:20:00,
2013-04-09 19:30:00,69.6,30.1,29.80,WSW,244,0.0,0.0,23,0.00,,,0.00,Wunderground v.1.15,2013-04-09 23:30:00,
2013-04-09 19:40:00,68.1,28.9,29.80,WSW,244,0.0,0.0,23,0.00,,,0.00,Wunderground v.1.15,2013-04-09 23:40:00,
2013-04-09 19:50:00,66.4,27.4,29.80,WSW,244,0.0,0.0,23,0.00,,,0.00,Wunderground v.1.15,2013-04-09 23:50:00,
2013-04-09 20:00:00,65.2,26.4,29.81,WSW,244,0.0,0.0,23,0.00,,,0.00,Wunderground v.1.15,2013-04-10 00:00:00,
2013-04-09 20:10:00,64.0,25.4,29.81,WSW,244,0.0,0.0,23,0.00,,,0.00,Wunderground v.1.15,2013-04-10 00:10:00,
2013-04-09 20:20:00,64.0,25.4,29.81,WSW,244,0.0,0.0,23,0.00,,,0.00,Wunderground v.1.15,2013-04-10 00:20:00,
2013-04-09 20:30:00,64.0,25.4,29.82,WSW,244,0.0,0.0,23,0.00,,,0.00,Wunderground v.1.15,2013-04-10 00:30:00,
2013-04-09 20:40:00,64.0,43.9,29.82,WSW,244,0.0,0.0,48,0.00,,,0.00,Wunderground v.1.15,2013-04-10 00:40:00,
2013-04-09 20:50:00,64.0,43.9,29.83,WSW,244,0.0,0.0,48,0.00,,,0.00,Wunderground v.1.15,2013-04-10 00:50:00,
2013-04-09 21:00:00,60.9,41.6,29.83,WSW,244,0.0,0.0,49,0.00,,,0.00,Wunderground v.1.15,2013-04-10 01:00:00,
2013-04-09 21:10:00,60.5,41.2,29.83,WSW,244,0.0,0.0,49,0.00,,,0.00,Wunderground v.1.15,2013-04-10 01:10:00,
2013-04-09 21:20:00,60.2,41.0,29.83,WSW,244,0.0,0.0,49,0.00,,,0.00,Wunderground v.1.15,2013-04-10 01:20:00,
2013-04-09 21:30:00,60.2,41.0,29.84,WSW,244,0.0,0.0,49,0.00,,,0.00,Wunderground v.1.15,2013-04-10 01:30:00,
2013-04-09 21:40:00,60.2,42.5,29.84,WSW,244,0.0,0.0,52,0.00,,,0.00,Wunderground v.1.15,2013-04-10 01:40:00,
2013-04-09 21:50:00,60.2,43.0,29.84,WSW,244,0.0,0.0,53,0.00,,,0.00,Wunderground v.1.15,2013-04-10 01:50:00,
2013-04-09 22:00:00,59.0,41.9,29.83,WSW,244,0.0,0.0,53,0.00,,,0.00,Wunderground v.1.15,2013-04-10 02:00:00,
2013-04-09 22:10:00,58.9,41.8,29.83,WSW,244,0.0,0.0,53,0.00,,,0.00,Wunderground v.1.15,2013-04-10 02:10:00,
2013-04-09 22:20:00,58.9,41.3,29.83,WSW,244,0.0,0.0,52,0.00,,,0.00,Wunderground v.1.15,2013-04-10 02:20:00,
2013-04-09 22:30:00,58.9,39.8,29.80,WSW,244,0.0,0.0,49,0.00,,,0.00,Wunderground v.1.15,2013-04-10 02:30:00,
2013-04-09 22:40:00,59.0,39.3,29.80,WSW,244,0.0,0.0,48,0.00,,,0.00,Wunderground v.1.15,2013-04-10 02:40:00,
2013-04-09 22:50:00,59.6,39.9,29.79,WSW,244,0.0,0.0,48,0.00,,,0.00,Wunderground v.1.15,2013-04-10 02:50:00,
2013-04-09 23:00:00,59.6,39.9,29.78,WSW,244,0.0,0.0,48,0.00,,,0.00,Wunderground v.1.15,2013-04-10 03:00:00,
2013-04-09 23:10:00,59.6,37.6,29.78,WSW,244,0.0,0.0,44,0.00,,,0.00,Wunderground v.1.15,2013-04-10 03:10:00,
2013-04-09 23:20:00,60.9,37.0,29.77,NNE,13,0.0,1.0,41,0.00,,,0.00,Wunderground v.1.15,2013-04-10 03:20:00,
2013-04-09 23:30:00,62.4,36.4,29.76,NNE,13,0.0,0.0,38,0.00,,,0.00,Wunderground v.1.15,2013-04-10 03:30:00,
2013-04-09 23:50:00,63.1,37.1,29.76,SSW,213,0.0,2.0,38,0.00,,,0.00,Wunderground v.1.15,2013-04-10 03:50:00,